sensor_id;sensor_type;location;lat;lon;timestamp;P1;durP1;ratioP1;P2;durP2;ratioP2
25349;SDS011;13302;48.796;11.978;2023-03-01T00:02:11;12.63;;;11.33;;
25349;SDS011;13302;48.796;11.978;2023-03-01T00:04:58;14.13;;;11.43;;
25349;SDS011;13302;48.796;11.978;2023-03-01T00:07:45;11.90;;;10.80;;
25349;SDS011;13302;48.796;11.978;2023-03-01T00:10:32;12.13;;;10.93;;
25349;SDS011;13302;48.796;11.978;2023-03-01T00:13:19;11.47;;;10.37;;
25349;SDS011;13302;48.796;11.978;2023-03-01T00:16:07;10.97;;;9.97;;
25349;SDS011;13302;48.796;11.978;2023-03-01T00:18:57;11.30;;;10.10;;
25349;SDS011;13302;48.796;11.978;2023-03-01T00:21:44;11.90;;;10.70;;
25349;SDS011;13302;48.796;11.978;2023-03-01T00:24:31;11.77;;;10.57;;
25349;SDS011;13302;48.796;11.978;2023-03-01T00:27:18;12.20;;;10.90;;
25349;SDS011;13302;48.796;11.978;2023-03-01T00:30:05;11.90;;;10.70;;
25349;SDS011;13302;48.796;11.978;2023-03-01T00:32:53;12.40;;;11.03;;
25349;SDS011;13302;48.796;11.978;2023-03-01T00:35:40;11.53;;;10.43;;
25349;SDS011;13302;48.796;11.978;2023-03-01T00:38:27;11.63;;;10.53;;
25349;SDS011;13302;48.796;11.978;2023-03-01T00:41:15;11.90;;;10.80;;
25349;SDS011;13302;48.796;11.978;2023-03-01T00:44:03;11.20;;;10.10;;
25349;SDS011;13302;48.796;11.978;2023-03-01T00:46:50;11.47;;;10.30;;
25349;SDS011;13302;48.796;11.978;2023-03-01T00:49:37;11.20;;;10.10;;
25349;SDS011;13302;48.796;11.978;2023-03-01T00:52:24;10.77;;;9.77;;
25349;SDS011;13302;48.796;11.978;2023-03-01T00:55:11;11.00;;;9.90;;
25349;SDS011;13302;48.796;11.978;2023-03-01T00:57:59;10.87;;;9.83;;
25349;SDS011;13302;48.796;11.978;2023-03-01T01:00:46;10.70;;;9.70;;
25349;SDS011;13302;48.796;11.978;2023-03-01T01:03:34;11.27;;;10.20;;
25349;SDS011;13302;48.796;11.978;2023-03-01T01:06:25;11.30;;;10.30;;
25349;SDS011;13302;48.796;11.978;2023-03-01T01:09:15;11.10;;;10.10;;
25349;SDS011;13302;48.796;11.978;2023-03-01T01:12:04;11.77;;;9.73;;
25349;SDS011;13302;48.796;11.978;2023-03-01T01:14:51;11.07;;;9.97;;
25349;SDS011;13302;48.796;11.978;2023-03-01T01:17:38;11.43;;;10.23;;
25349;SDS011;13302;48.796;11.978;2023-03-01T01:20:25;11.60;;;10.40;;
25349;SDS011;13302;48.796;11.978;2023-03-01T01:23:12;11.53;;;10.33;;
25349;SDS011;13302;48.796;11.978;2023-03-01T01:26:13;12.50;;;9.87;;
25349;SDS011;13302;48.796;11.978;2023-03-01T01:29:03;10.73;;;9.73;;
25349;SDS011;13302;48.796;11.978;2023-03-01T01:31:51;11.40;;;10.23;;
25349;SDS011;13302;48.796;11.978;2023-03-01T01:34:39;11.13;;;10.00;;
25349;SDS011;13302;48.796;11.978;2023-03-01T01:37:26;10.67;;;9.40;;
25349;SDS011;13302;48.796;11.978;2023-03-01T01:40:17;11.90;;;10.70;;
25349;SDS011;13302;48.796;11.978;2023-03-01T01:43:04;11.43;;;10.33;;
25349;SDS011;13302;48.796;11.978;2023-03-01T01:46:45;11.97;;;10.87;;
25349;SDS011;13302;48.796;11.978;2023-03-01T01:52:14;11.57;;;10.43;;
25349;SDS011;13302;48.796;11.978;2023-03-01T01:55:14;11.47;;;10.30;;
25349;SDS011;13302;48.796;11.978;2023-03-01T01:58:08;12.20;;;11.03;;
25349;SDS011;13302;48.796;11.978;2023-03-01T02:00:57;12.33;;;11.03;;
25349;SDS011;13302;48.796;11.978;2023-03-01T02:03:44;12.07;;;10.87;;
25349;SDS011;13302;48.796;11.978;2023-03-01T02:06:41;12.03;;;10.83;;
25349;SDS011;13302;48.796;11.978;2023-03-01T02:09:37;11.00;;;9.90;;
25349;SDS011;13302;48.796;11.978;2023-03-01T02:12:24;11.57;;;10.30;;
25349;SDS011;13302;48.796;11.978;2023-03-01T02:15:12;12.53;;;11.23;;
25349;SDS011;13302;48.796;11.978;2023-03-01T02:17:59;12.10;;;10.80;;
25349;SDS011;13302;48.796;11.978;2023-03-01T02:24:29;11.20;;;10.20;;
25349;SDS011;13302;48.796;11.978;2023-03-01T02:27:36;12.67;;;11.37;;
25349;SDS011;13302;48.796;11.978;2023-03-01T02:30:29;13.53;;;10.90;;
25349;SDS011;13302;48.796;11.978;2023-03-01T02:33:17;12.13;;;10.87;;
25349;SDS011;13302;48.796;11.978;2023-03-01T02:36:06;12.80;;;11.50;;
25349;SDS011;13302;48.796;11.978;2023-03-01T02:38:56;13.03;;;11.73;;
25349;SDS011;13302;48.796;11.978;2023-03-01T02:41:49;11.77;;;10.57;;
25349;SDS011;13302;48.796;11.978;2023-03-01T02:44:39;11.47;;;10.37;;
25349;SDS011;13302;48.796;11.978;2023-03-01T02:47:26;13.70;;;11.87;;
25349;SDS011;13302;48.796;11.978;2023-03-01T02:50:25;14.20;;;12.70;;
25349;SDS011;13302;48.796;11.978;2023-03-01T02:56:55;13.30;;;11.93;;
25349;SDS011;13302;48.796;11.978;2023-03-01T02:59:43;13.57;;;12.17;;
25349;SDS011;13302;48.796;11.978;2023-03-01T03:02:30;14.53;;;12.17;;
25349;SDS011;13302;48.796;11.978;2023-03-01T03:05:29;13.00;;;11.70;;
25349;SDS011;13302;48.796;11.978;2023-03-01T03:08:17;13.90;;;12.33;;
25349;SDS011;13302;48.796;11.978;2023-03-01T03:11:11;13.73;;;12.33;;
25349;SDS011;13302;48.796;11.978;2023-03-01T03:13:58;13.40;;;12.10;;
25349;SDS011;13302;48.796;11.978;2023-03-01T03:16:46;13.47;;;12.07;;
25349;SDS011;13302;48.796;11.978;2023-03-01T03:19:35;14.70;;;13.20;;
25349;SDS011;13302;48.796;11.978;2023-03-01T03:22:22;13.73;;;12.27;;
25349;SDS011;13302;48.796;11.978;2023-03-01T03:25:09;12.93;;;11.63;;
25349;SDS011;13302;48.796;11.978;2023-03-01T03:27:57;13.10;;;11.80;;
25349;SDS011;13302;48.796;11.978;2023-03-01T03:30:44;12.37;;;11.07;;
25349;SDS011;13302;48.796;11.978;2023-03-01T03:33:31;13.60;;;12.20;;
25349;SDS011;13302;48.796;11.978;2023-03-01T03:36:20;12.20;;;11.00;;
25349;SDS011;13302;48.796;11.978;2023-03-01T03:39:09;13.00;;;11.73;;
25349;SDS011;13302;48.796;11.978;2023-03-01T03:41:56;12.97;;;11.67;;
25349;SDS011;13302;48.796;11.978;2023-03-01T03:44:43;15.80;;;12.57;;
25349;SDS011;13302;48.796;11.978;2023-03-01T03:47:30;13.40;;;12.00;;
25349;SDS011;13302;48.796;11.978;2023-03-01T03:50:17;13.67;;;12.17;;
25349;SDS011;13302;48.796;11.978;2023-03-01T03:53:06;13.80;;;12.40;;
25349;SDS011;13302;48.796;11.978;2023-03-01T03:55:58;15.00;;;12.53;;
25349;SDS011;13302;48.796;11.978;2023-03-01T03:58:45;14.23;;;12.60;;
25349;SDS011;13302;48.796;11.978;2023-03-01T04:01:32;13.97;;;12.37;;
25349;SDS011;13302;48.796;11.978;2023-03-01T04:04:19;14.10;;;12.70;;
25349;SDS011;13302;48.796;11.978;2023-03-01T04:07:06;14.37;;;12.87;;
25349;SDS011;13302;48.796;11.978;2023-03-01T04:09:53;14.13;;;12.73;;
25349;SDS011;13302;48.796;11.978;2023-03-01T04:12:40;14.43;;;12.90;;
25349;SDS011;13302;48.796;11.978;2023-03-01T04:15:30;16.73;;;12.53;;
25349;SDS011;13302;48.796;11.978;2023-03-01T04:18:19;14.50;;;12.97;;
25349;SDS011;13302;48.796;11.978;2023-03-01T04:21:08;14.93;;;13.33;;
25349;SDS011;13302;48.796;11.978;2023-03-01T04:23:55;14.73;;;13.20;;
25349;SDS011;13302;48.796;11.978;2023-03-01T04:26:42;13.83;;;12.43;;
25349;SDS011;13302;48.796;11.978;2023-03-01T04:29:29;15.10;;;13.20;;
25349;SDS011;13302;48.796;11.978;2023-03-01T04:32:16;14.00;;;12.60;;
25349;SDS011;13302;48.796;11.978;2023-03-01T04:35:04;15.37;;;13.67;;
25349;SDS011;13302;48.796;11.978;2023-03-01T04:37:51;14.03;;;12.53;;
25349;SDS011;13302;48.796;11.978;2023-03-01T04:40:38;13.67;;;12.27;;
25349;SDS011;13302;48.796;11.978;2023-03-01T04:43:26;14.17;;;12.67;;
25349;SDS011;13302;48.796;11.978;2023-03-01T04:46:14;14.87;;;12.40;;
25349;SDS011;13302;48.796;11.978;2023-03-01T04:49:04;13.80;;;12.40;;
25349;SDS011;13302;48.796;11.978;2023-03-01T04:51:51;14.47;;;13.07;;
25349;SDS011;13302;48.796;11.978;2023-03-01T04:54:38;14.33;;;12.83;;
25349;SDS011;13302;48.796;11.978;2023-03-01T04:57:25;14.83;;;12.50;;
25349;SDS011;13302;48.796;11.978;2023-03-01T05:00:13;13.97;;;12.10;;
25349;SDS011;13302;48.796;11.978;2023-03-01T05:03:07;14.60;;;13.00;;
25349;SDS011;13302;48.796;11.978;2023-03-01T05:05:58;14.37;;;12.87;;
25349;SDS011;13302;48.796;11.978;2023-03-01T05:08:46;15.07;;;12.87;;
25349;SDS011;13302;48.796;11.978;2023-03-01T05:11:33;14.03;;;12.57;;
25349;SDS011;13302;48.796;11.978;2023-03-01T05:14:22;14.77;;;12.67;;
25349;SDS011;13302;48.796;11.978;2023-03-01T05:17:09;14.03;;;12.63;;
25349;SDS011;13302;48.796;11.978;2023-03-01T05:19:56;14.10;;;12.60;;
25349;SDS011;13302;48.796;11.978;2023-03-01T05:22:46;14.43;;;13.03;;
25349;SDS011;13302;48.796;11.978;2023-03-01T05:25:33;14.10;;;12.60;;
25349;SDS011;13302;48.796;11.978;2023-03-01T05:28:21;14.90;;;12.90;;
25349;SDS011;13302;48.796;11.978;2023-03-01T05:31:08;14.20;;;12.80;;
25349;SDS011;13302;48.796;11.978;2023-03-01T05:33:56;14.80;;;12.80;;
25349;SDS011;13302;48.796;11.978;2023-03-01T05:36:43;13.50;;;12.10;;
25349;SDS011;13302;48.796;11.978;2023-03-01T05:39:30;13.57;;;12.17;;
25349;SDS011;13302;48.796;11.978;2023-03-01T05:42:18;13.93;;;12.50;;
25349;SDS011;13302;48.796;11.978;2023-03-01T05:45:05;14.00;;;12.50;;
25349;SDS011;13302;48.796;11.978;2023-03-01T05:47:56;14.40;;;12.30;;
25349;SDS011;13302;48.796;11.978;2023-03-01T05:50:43;14.70;;;13.10;;
25349;SDS011;13302;48.796;11.978;2023-03-01T05:53:31;15.07;;;12.93;;
25349;SDS011;13302;48.796;11.978;2023-03-01T05:56:18;15.17;;;13.57;;
25349;SDS011;13302;48.796;11.978;2023-03-01T05:59:05;15.33;;;13.53;;
25349;SDS011;13302;48.796;11.978;2023-03-01T06:01:52;15.27;;;13.70;;
25349;SDS011;13302;48.796;11.978;2023-03-01T06:04:40;15.00;;;13.40;;
25349;SDS011;13302;48.796;11.978;2023-03-01T06:07:27;16.13;;;14.33;;
25349;SDS011;13302;48.796;11.978;2023-03-01T06:10:14;16.23;;;14.20;;
25349;SDS011;13302;48.796;11.978;2023-03-01T06:13:01;17.17;;;14.13;;
25349;SDS011;13302;48.796;11.978;2023-03-01T06:15:48;15.83;;;14.13;;
25349;SDS011;13302;48.796;11.978;2023-03-01T06:18:35;16.33;;;13.40;;
25349;SDS011;13302;48.796;11.978;2023-03-01T06:21:23;15.87;;;13.47;;
25349;SDS011;13302;48.796;11.978;2023-03-01T06:24:10;14.07;;;12.53;;
25349;SDS011;13302;48.796;11.978;2023-03-01T06:26:57;17.37;;;12.83;;
25349;SDS011;13302;48.796;11.978;2023-03-01T06:29:44;15.50;;;12.97;;
25349;SDS011;13302;48.796;11.978;2023-03-01T06:32:31;17.40;;;13.57;;
25349;SDS011;13302;48.796;11.978;2023-03-01T06:35:18;14.50;;;12.90;;
25349;SDS011;13302;48.796;11.978;2023-03-01T06:38:07;15.60;;;13.90;;
25349;SDS011;13302;48.796;11.978;2023-03-01T06:40:54;15.87;;;14.27;;
25349;SDS011;13302;48.796;11.978;2023-03-01T06:43:43;15.00;;;13.37;;
25349;SDS011;13302;48.796;11.978;2023-03-01T06:46:30;15.67;;;14.03;;
25349;SDS011;13302;48.796;11.978;2023-03-01T06:49:18;15.27;;;13.67;;
25349;SDS011;13302;48.796;11.978;2023-03-01T06:52:06;14.17;;;12.70;;
25349;SDS011;13302;48.796;11.978;2023-03-01T06:54:53;15.80;;;14.20;;
25349;SDS011;13302;48.796;11.978;2023-03-01T06:57:40;17.00;;;15.30;;
25349;SDS011;13302;48.796;11.978;2023-03-01T07:00:27;17.63;;;14.80;;
25349;SDS011;13302;48.796;11.978;2023-03-01T07:03:14;16.73;;;14.93;;
25349;SDS011;13302;48.796;11.978;2023-03-01T07:06:01;15.93;;;14.20;;
25349;SDS011;13302;48.796;11.978;2023-03-01T07:08:48;14.70;;;13.20;;
25349;SDS011;13302;48.796;11.978;2023-03-01T07:11:36;15.43;;;13.73;;
25349;SDS011;13302;48.796;11.978;2023-03-01T07:14:23;14.73;;;13.13;;
25349;SDS011;13302;48.796;11.978;2023-03-01T07:17:13;15.57;;;13.53;;
25349;SDS011;13302;48.796;11.978;2023-03-01T07:20:00;16.53;;;14.07;;
25349;SDS011;13302;48.796;11.978;2023-03-01T07:22:47;14.97;;;13.43;;
25349;SDS011;13302;48.796;11.978;2023-03-01T07:25:35;15.23;;;13.67;;
25349;SDS011;13302;48.796;11.978;2023-03-01T07:28:22;16.27;;;14.33;;
25349;SDS011;13302;48.796;11.978;2023-03-01T07:31:10;14.93;;;13.33;;
25349;SDS011;13302;48.796;11.978;2023-03-01T07:33:57;14.47;;;12.97;;
25349;SDS011;13302;48.796;11.978;2023-03-01T07:36:44;14.50;;;13.10;;
25349;SDS011;13302;48.796;11.978;2023-03-01T07:39:31;15.67;;;13.23;;
25349;SDS011;13302;48.796;11.978;2023-03-01T07:42:18;16.63;;;14.17;;
25349;SDS011;13302;48.796;11.978;2023-03-01T07:45:05;14.87;;;13.37;;
25349;SDS011;13302;48.796;11.978;2023-03-01T07:47:53;14.77;;;13.27;;
25349;SDS011;13302;48.796;11.978;2023-03-01T07:50:41;15.53;;;13.10;;
25349;SDS011;13302;48.796;11.978;2023-03-01T07:53:28;13.60;;;12.13;;
25349;SDS011;13302;48.796;11.978;2023-03-01T07:56:16;13.70;;;12.30;;
25349;SDS011;13302;48.796;11.978;2023-03-01T07:59:04;14.43;;;12.70;;
25349;SDS011;13302;48.796;11.978;2023-03-01T08:01:51;15.47;;;13.47;;
25349;SDS011;13302;48.796;11.978;2023-03-01T08:04:38;14.10;;;12.70;;
25349;SDS011;13302;48.796;11.978;2023-03-01T08:07:25;14.93;;;12.97;;
25349;SDS011;13302;48.796;11.978;2023-03-01T08:10:12;14.57;;;13.07;;
25349;SDS011;13302;48.796;11.978;2023-03-01T08:12:59;14.00;;;12.57;;
25349;SDS011;13302;48.796;11.978;2023-03-01T08:15:46;14.87;;;13.37;;
25349;SDS011;13302;48.796;11.978;2023-03-01T08:18:33;14.63;;;12.83;;
25349;SDS011;13302;48.796;11.978;2023-03-01T08:21:20;14.93;;;13.30;;
25349;SDS011;13302;48.796;11.978;2023-03-01T08:24:07;15.73;;;12.83;;
25349;SDS011;13302;48.796;11.978;2023-03-01T08:26:56;14.90;;;13.30;;
25349;SDS011;13302;48.796;11.978;2023-03-01T08:29:43;15.57;;;13.50;;
25349;SDS011;13302;48.796;11.978;2023-03-01T08:32:34;14.63;;;12.77;;
25349;SDS011;13302;48.796;11.978;2023-03-01T08:35:23;15.73;;;13.87;;
25349;SDS011;13302;48.796;11.978;2023-03-01T08:38:10;13.57;;;12.17;;
25349;SDS011;13302;48.796;11.978;2023-03-01T08:40:59;16.30;;;14.43;;
25349;SDS011;13302;48.796;11.978;2023-03-01T08:43:47;15.90;;;13.27;;
25349;SDS011;13302;48.796;11.978;2023-03-01T08:46:38;13.80;;;12.43;;
25349;SDS011;13302;48.796;11.978;2023-03-01T08:49:27;14.73;;;13.23;;
25349;SDS011;13302;48.796;11.978;2023-03-01T08:52:14;15.40;;;12.60;;
25349;SDS011;13302;48.796;11.978;2023-03-01T08:55:01;14.27;;;12.77;;
25349;SDS011;13302;48.796;11.978;2023-03-01T08:57:48;13.90;;;12.40;;
25349;SDS011;13302;48.796;11.978;2023-03-01T09:00:35;14.50;;;13.00;;
25349;SDS011;13302;48.796;11.978;2023-03-01T09:03:23;15.27;;;12.30;;
25349;SDS011;13302;48.796;11.978;2023-03-01T09:06:11;15.70;;;13.97;;
25349;SDS011;13302;48.796;11.978;2023-03-01T09:08:58;13.80;;;12.40;;
25349;SDS011;13302;48.796;11.978;2023-03-01T09:11:46;12.20;;;11.00;;
25349;SDS011;13302;48.796;11.978;2023-03-01T09:14:33;12.97;;;11.20;;
25349;SDS011;13302;48.796;11.978;2023-03-01T09:17:20;12.17;;;10.87;;
25349;SDS011;13302;48.796;11.978;2023-03-01T09:20:08;12.50;;;11.30;;
25349;SDS011;13302;48.796;11.978;2023-03-01T09:22:55;13.00;;;11.67;;
25349;SDS011;13302;48.796;11.978;2023-03-01T09:25:42;11.67;;;10.03;;
25349;SDS011;13302;48.796;11.978;2023-03-01T09:28:29;11.43;;;10.27;;
25349;SDS011;13302;48.796;11.978;2023-03-01T09:31:17;12.63;;;11.30;;
25349;SDS011;13302;48.796;11.978;2023-03-01T09:34:06;12.47;;;11.17;;
25349;SDS011;13302;48.796;11.978;2023-03-01T09:36:54;13.27;;;11.87;;
25349;SDS011;13302;48.796;11.978;2023-03-01T09:39:41;13.27;;;11.97;;
25349;SDS011;13302;48.796;11.978;2023-03-01T09:42:28;12.63;;;11.33;;
25349;SDS011;13302;48.796;11.978;2023-03-01T09:45:21;12.90;;;10.93;;
25349;SDS011;13302;48.796;11.978;2023-03-01T09:48:18;13.07;;;11.67;;
25349;SDS011;13302;48.796;11.978;2023-03-01T09:51:12;12.80;;;11.60;;
25349;SDS011;13302;48.796;11.978;2023-03-01T09:54:04;12.47;;;11.17;;
25349;SDS011;13302;48.796;11.978;2023-03-01T10:03:12;11.50;;;10.37;;
25349;SDS011;13302;48.796;11.978;2023-03-01T10:09:20;11.90;;;10.60;;
25349;SDS011;13302;48.796;11.978;2023-03-01T10:12:09;12.60;;;10.93;;
25349;SDS011;13302;48.796;11.978;2023-03-01T10:15:04;11.43;;;10.23;;
25349;SDS011;13302;48.796;11.978;2023-03-01T10:18:03;11.17;;;10.03;;
25349;SDS011;13302;48.796;11.978;2023-03-01T10:20:58;12.00;;;10.37;;
25349;SDS011;13302;48.796;11.978;2023-03-01T10:23:49;11.23;;;10.03;;
25349;SDS011;13302;48.796;11.978;2023-03-01T10:26:55;13.13;;;11.17;;
25349;SDS011;13302;48.796;11.978;2023-03-01T10:33:00;10.90;;;9.80;;
25349;SDS011;13302;48.796;11.978;2023-03-01T10:35:49;11.93;;;10.20;;
25349;SDS011;13302;48.796;11.978;2023-03-01T10:42:00;11.47;;;8.57;;
25349;SDS011;13302;48.796;11.978;2023-03-01T10:44:49;10.10;;;9.10;;
25349;SDS011;13302;48.796;11.978;2023-03-01T10:47:36;10.60;;;9.50;;
25349;SDS011;13302;48.796;11.978;2023-03-01T10:50:23;11.70;;;10.13;;
25349;SDS011;13302;48.796;11.978;2023-03-01T10:53:19;11.17;;;10.00;;
25349;SDS011;13302;48.796;11.978;2023-03-01T10:56:27;11.27;;;10.00;;
25349;SDS011;13302;48.796;11.978;2023-03-01T10:59:20;10.30;;;9.30;;
25349;SDS011;13302;48.796;11.978;2023-03-01T11:02:17;9.80;;;8.80;;
25349;SDS011;13302;48.796;11.978;2023-03-01T11:08:06;10.30;;;9.30;;
25349;SDS011;13302;48.796;11.978;2023-03-01T11:10:53;11.17;;;9.20;;
25349;SDS011;13302;48.796;11.978;2023-03-01T11:14:03;10.87;;;9.43;;
25349;SDS011;13302;48.796;11.978;2023-03-01T11:17:21;9.90;;;8.90;;
25349;SDS011;13302;48.796;11.978;2023-03-01T11:23:02;10.40;;;9.27;;
25349;SDS011;13302;48.796;11.978;2023-03-01T11:25:56;10.37;;;9.37;;
25349;SDS011;13302;48.796;11.978;2023-03-01T11:28:49;10.20;;;9.20;;
25349;SDS011;13302;48.796;11.978;2023-03-01T11:31:40;9.77;;;8.77;;
25349;SDS011;13302;48.796;11.978;2023-03-01T11:34:47;10.80;;;9.70;;
25349;SDS011;13302;48.796;11.978;2023-03-01T11:37:43;11.03;;;9.80;;
25349;SDS011;13302;48.796;11.978;2023-03-01T11:40:54;9.87;;;8.87;;
25349;SDS011;13302;48.796;11.978;2023-03-01T11:43:53;10.17;;;9.27;;
25349;SDS011;13302;48.796;11.978;2023-03-01T11:46:51;10.00;;;9.00;;
25349;SDS011;13302;48.796;11.978;2023-03-01T11:52:58;9.60;;;8.70;;
25349;SDS011;13302;48.796;11.978;2023-03-01T11:56:27;10.57;;;9.10;;
25349;SDS011;13302;48.796;11.978;2023-03-01T11:59:32;10.37;;;9.30;;
25349;SDS011;13302;48.796;11.978;2023-03-01T12:02:39;9.40;;;8.50;;
25349;SDS011;13302;48.796;11.978;2023-03-01T12:08:31;9.47;;;8.47;;
25349;SDS011;13302;48.796;11.978;2023-03-01T12:20:45;10.17;;;9.20;;
25349;SDS011;13302;48.796;11.978;2023-03-01T12:30:00;10.43;;;8.97;;
25349;SDS011;13302;48.796;11.978;2023-03-01T12:33:16;9.37;;;8.47;;
25349;SDS011;13302;48.796;11.978;2023-03-01T12:36:23;9.07;;;8.27;;
25349;SDS011;13302;48.796;11.978;2023-03-01T12:39:43;9.80;;;8.80;;
25349;SDS011;13302;48.796;11.978;2023-03-01T12:42:48;9.90;;;8.23;;
25349;SDS011;13302;48.796;11.978;2023-03-01T12:45:47;8.50;;;7.70;;
25349;SDS011;13302;48.796;11.978;2023-03-01T12:51:50;10.87;;;8.40;;
25349;SDS011;13302;48.796;11.978;2023-03-01T12:54:43;10.40;;;8.37;;
25349;SDS011;13302;48.796;11.978;2023-03-01T12:57:34;9.03;;;8.13;;
25349;SDS011;13302;48.796;11.978;2023-03-01T13:10:29;9.37;;;8.43;;
25349;SDS011;13302;48.796;11.978;2023-03-01T13:13:19;8.73;;;7.83;;
25349;SDS011;13302;48.796;11.978;2023-03-01T13:16:19;10.13;;;9.13;;
25349;SDS011;13302;48.796;11.978;2023-03-01T13:19:13;10.43;;;9.30;;
25349;SDS011;13302;48.796;11.978;2023-03-01T13:22:25;10.10;;;9.10;;
25349;SDS011;13302;48.796;11.978;2023-03-01T13:25:18;11.07;;;8.73;;
25349;SDS011;13302;48.796;11.978;2023-03-01T13:34:38;10.87;;;9.27;;
25349;SDS011;13302;48.796;11.978;2023-03-01T13:37:27;11.70;;;10.60;;
25349;SDS011;13302;48.796;11.978;2023-03-01T13:43:23;10.87;;;9.73;;
25349;SDS011;13302;48.796;11.978;2023-03-01T13:49:11;12.40;;;11.10;;
25349;SDS011;13302;48.796;11.978;2023-03-01T13:52:02;11.60;;;10.40;;
25349;SDS011;13302;48.796;11.978;2023-03-01T13:54:49;11.77;;;10.57;;
25349;SDS011;13302;48.796;11.978;2023-03-01T13:57:36;12.63;;;11.33;;
25349;SDS011;13302;48.796;11.978;2023-03-01T14:03:19;12.40;;;10.63;;
25349;SDS011;13302;48.796;11.978;2023-03-01T14:06:13;11.87;;;10.53;;
25349;SDS011;13302;48.796;11.978;2023-03-01T14:09:13;12.93;;;11.60;;
25349;SDS011;13302;48.796;11.978;2023-03-01T14:12:47;12.33;;;11.13;;
25349;SDS011;13302;48.796;11.978;2023-03-01T14:15:35;12.37;;;10.50;;
25349;SDS011;13302;48.796;11.978;2023-03-01T14:21:39;11.37;;;10.27;;
25349;SDS011;13302;48.796;11.978;2023-03-01T14:24:26;11.67;;;10.57;;
25349;SDS011;13302;48.796;11.978;2023-03-01T14:27:13;11.30;;;10.17;;
25349;SDS011;13302;48.796;11.978;2023-03-01T14:30:44;12.37;;;11.07;;
25349;SDS011;13302;48.796;11.978;2023-03-01T14:33:20;10.33;;;9.23;;
25349;SDS011;13302;48.796;11.978;2023-03-01T14:36:12;12.77;;;11.40;;
25349;SDS011;13302;48.796;11.978;2023-03-01T14:38:59;12.97;;;11.47;;
25349;SDS011;13302;48.796;11.978;2023-03-01T14:41:51;15.93;;;13.40;;
25349;SDS011;13302;48.796;11.978;2023-03-01T14:44:40;14.00;;;11.97;;
25349;SDS011;13302;48.796;11.978;2023-03-01T14:47:32;12.83;;;11.53;;
25349;SDS011;13302;48.796;11.978;2023-03-01T14:53:21;15.07;;;12.93;;
25349;SDS011;13302;48.796;11.978;2023-03-01T14:56:15;14.83;;;13.30;;
25349;SDS011;13302;48.796;11.978;2023-03-01T14:59:04;12.67;;;11.37;;
25349;SDS011;13302;48.796;11.978;2023-03-01T15:01:51;11.97;;;10.80;;
25349;SDS011;13302;48.796;11.978;2023-03-01T15:04:41;10.73;;;9.67;;
25349;SDS011;13302;48.796;11.978;2023-03-01T15:07:31;11.40;;;10.20;;
25349;SDS011;13302;48.796;11.978;2023-03-01T15:10:24;13.03;;;11.23;;
25349;SDS011;13302;48.796;11.978;2023-03-01T15:13:19;12.40;;;11.20;;
25349;SDS011;13302;48.796;11.978;2023-03-01T15:16:10;13.87;;;11.17;;
25349;SDS011;13302;48.796;11.978;2023-03-01T15:19:04;12.50;;;11.20;;
25349;SDS011;13302;48.796;11.978;2023-03-01T15:21:52;11.43;;;10.23;;
25349;SDS011;13302;48.796;11.978;2023-03-01T15:24:40;12.53;;;11.23;;
25349;SDS011;13302;48.796;11.978;2023-03-01T15:27:27;12.53;;;11.27;;
25349;SDS011;13302;48.796;11.978;2023-03-01T15:30:21;11.93;;;10.73;;
25349;SDS011;13302;48.796;11.978;2023-03-01T15:33:18;14.40;;;10.47;;
25349;SDS011;13302;48.796;11.978;2023-03-01T15:39:32;12.80;;;11.47;;
25349;SDS011;13302;48.796;11.978;2023-03-01T15:48:15;13.23;;;11.87;;
25349;SDS011;13302;48.796;11.978;2023-03-01T15:51:09;14.60;;;11.60;;
25349;SDS011;13302;48.796;11.978;2023-03-01T15:54:01;12.93;;;11.47;;
25349;SDS011;13302;48.796;11.978;2023-03-01T15:56:58;13.27;;;11.50;;
25349;SDS011;13302;48.796;11.978;2023-03-01T15:59:45;12.90;;;11.13;;
25349;SDS011;13302;48.796;11.978;2023-03-01T16:02:32;11.90;;;10.70;;
25349;SDS011;13302;48.796;11.978;2023-03-01T16:05:23;11.97;;;10.70;;
25349;SDS011;13302;48.796;11.978;2023-03-01T16:08:14;12.10;;;10.87;;
25349;SDS011;13302;48.796;11.978;2023-03-01T16:11:02;14.13;;;12.20;;
25349;SDS011;13302;48.796;11.978;2023-03-01T16:13:51;12.33;;;10.70;;
25349;SDS011;13302;48.796;11.978;2023-03-01T16:16:38;12.70;;;11.43;;
25349;SDS011;13302;48.796;11.978;2023-03-01T16:19:25;14.33;;;12.83;;
25349;SDS011;13302;48.796;11.978;2023-03-01T16:22:12;13.77;;;12.37;;
25349;SDS011;13302;48.796;11.978;2023-03-01T16:24:59;15.57;;;13.17;;
25349;SDS011;13302;48.796;11.978;2023-03-01T16:27:48;16.03;;;14.23;;
25349;SDS011;13302;48.796;11.978;2023-03-01T16:30:37;14.40;;;12.90;;
25349;SDS011;13302;48.796;11.978;2023-03-01T16:33:26;22.97;;;16.53;;
25349;SDS011;13302;48.796;11.978;2023-03-01T16:36:19;16.50;;;12.70;;
25349;SDS011;13302;48.796;11.978;2023-03-01T16:39:10;13.77;;;12.17;;
25349;SDS011;13302;48.796;11.978;2023-03-01T16:41:58;13.90;;;12.13;;
25349;SDS011;13302;48.796;11.978;2023-03-01T16:44:46;15.00;;;12.30;;
25349;SDS011;13302;48.796;11.978;2023-03-01T16:47:33;13.43;;;12.10;;
25349;SDS011;13302;48.796;11.978;2023-03-01T16:50:21;12.13;;;10.83;;
25349;SDS011;13302;48.796;11.978;2023-03-01T16:53:08;13.37;;;11.97;;
25349;SDS011;13302;48.796;11.978;2023-03-01T16:55:56;12.83;;;11.43;;
25349;SDS011;13302;48.796;11.978;2023-03-01T16:58:44;13.60;;;12.20;;
25349;SDS011;13302;48.796;11.978;2023-03-01T17:01:32;12.83;;;11.63;;
25349;SDS011;13302;48.796;11.978;2023-03-01T17:04:26;13.53;;;11.63;;
25349;SDS011;13302;48.796;11.978;2023-03-01T17:07:13;13.57;;;12.17;;
25349;SDS011;13302;48.796;11.978;2023-03-01T17:10:00;12.90;;;11.60;;
25349;SDS011;13302;48.796;11.978;2023-03-01T17:12:49;13.47;;;12.00;;
25349;SDS011;13302;48.796;11.978;2023-03-01T17:15:40;14.53;;;12.10;;
25349;SDS011;13302;48.796;11.978;2023-03-01T17:18:27;12.57;;;11.30;;
25349;SDS011;13302;48.796;11.978;2023-03-01T17:21:14;12.97;;;11.57;;
25349;SDS011;13302;48.796;11.978;2023-03-01T17:24:03;13.57;;;12.17;;
25349;SDS011;13302;48.796;11.978;2023-03-01T17:26:50;13.07;;;11.67;;
25349;SDS011;13302;48.796;11.978;2023-03-01T17:29:37;13.37;;;12.00;;
25349;SDS011;13302;48.796;11.978;2023-03-01T17:32:25;14.20;;;12.47;;
25349;SDS011;13302;48.796;11.978;2023-03-01T17:35:12;12.67;;;11.33;;
25349;SDS011;13302;48.796;11.978;2023-03-01T17:37:59;14.07;;;12.60;;
25349;SDS011;13302;48.796;11.978;2023-03-01T17:40:46;13.57;;;12.27;;
25349;SDS011;13302;48.796;11.978;2023-03-01T17:43:33;14.77;;;13.17;;
25349;SDS011;13302;48.796;11.978;2023-03-01T17:46:20;12.73;;;11.43;;
25349;SDS011;13302;48.796;11.978;2023-03-01T17:49:08;13.97;;;12.57;;
25349;SDS011;13302;48.796;11.978;2023-03-01T17:51:55;14.17;;;12.80;;
25349;SDS011;13302;48.796;11.978;2023-03-01T17:54:42;13.43;;;12.13;;
25349;SDS011;13302;48.796;11.978;2023-03-01T17:57:29;14.03;;;12.63;;
25349;SDS011;13302;48.796;11.978;2023-03-01T18:00:17;14.57;;;13.17;;
25349;SDS011;13302;48.796;11.978;2023-03-01T18:03:04;14.23;;;12.60;;